El Dorado Springs, Missouri
Current Conditions -  °F | °C
As of 2:15 AM on Thursday 27 Nov 2014 (Local Time) from KGLY Reporting Station
Broken Clouds Broken Clouds  
Wind Chill: 22°   Ceiling: 1600
Heat Index: 32°   Visibility: 8mi
Dew Point: 27°   Wind: 14mph
Humidity: 80%   Direction: 310°NW
Pressure: 30.44"   Gusts: NA
Location:  37.88°N, 94.02°W
Report Text: KGLY 270815Z AUTO 31012KT 8SM BKN016 00/M03 A3044 RMK AO2
Loading
Personal Weather Stations






























Interactive Weather Map New forecast layout! Learn more

10-Day Weather Forecast

Advertisements
Track Severe Weather on mobile